Time;durP1;ratioP1;P1;durP2;ratioP2;P2;SDS_P1;SDS_P2;PMS_P1;PMS_P2;Temp;Humidity;BMP_temperature;BMP_pressure;BME280_temperature;BME280_humidity;BME280_pressure;Samples;Min_cycle;Max_cycle;Signal;HPM_P1;HPM_P2
2022/06/15 00:01:00;;;;;;;7.35;4.20;;;13.10;99.90;;;;;;5047061;28;20056;-78
2022/06/15 00:03:28;;;;;;;6.65;4.15;;;13.10;99.90;;;;;;5029558;28;20091;-78
2022/06/15 00:06:18;;;;;;;8.05;4.03;;;13.10;99.90;;;;;;5043753;28;20471;-79
2022/06/15 00:08:45;;;;;;;7.47;3.88;;;13.10;99.90;;;;;;5042917;28;20523;-78
2022/06/15 00:11:15;;;;;;;7.03;3.75;;;13.10;99.90;;;;;;5046695;28;20481;-77
2022/06/15 00:13:41;;;;;;;8.50;4.07;;;13.10;99.90;;;;;;5045871;28;20148;-78
2022/06/15 00:16:06;;;;;;;7.07;4.40;;;13.10;99.90;;;;;;5046376;28;20119;-79
2022/06/15 00:18:33;;;;;;;7.15;4.78;;;13.00;99.90;;;;;;5046122;28;20411;-78
2022/06/15 00:20:59;;;;;;;6.22;4.55;;;13.00;99.90;;;;;;5046881;28;20132;-79
2022/06/15 00:23:27;;;;;;;7.40;4.30;;;13.00;99.90;;;;;;5032003;28;20402;-78
2022/06/15 00:25:53;;;;;;;6.72;4.57;;;13.00;99.90;;;;;;5044381;28;20068;-78
2022/06/15 00:28:19;;;;;;;9.88;5.03;;;13.00;99.90;;;;;;5062852;28;20041;-78
2022/06/15 00:30:49;;;;;;;7.80;5.15;;;12.90;99.90;;;;;;5045176;28;20106;-78
2022/06/15 00:33:14;;;;;;;9.35;5.38;;;12.90;99.90;;;;;;5046346;28;20037;-79
2022/06/15 00:35:40;;;;;;;6.90;4.78;;;12.90;99.90;;;;;;5045134;28;20564;-79
2022/06/15 00:38:07;;;;;;;5.82;4.82;;;12.90;99.90;;;;;;5047785;28;20045;-78
2022/06/15 00:40:34;;;;;;;6.72;4.50;;;12.80;99.90;;;;;;5043898;28;20102;-79
2022/06/15 00:43:00;;;;;;;5.03;3.28;;;12.80;99.90;;;;;;5045580;28;20033;-79
2022/06/15 00:45:25;;;;;;;3.53;2.80;;;12.80;99.90;;;;;;5043714;28;20456;-79
2022/06/15 00:47:51;;;;;;;3.80;3.25;;;12.80;99.90;;;;;;5044793;28;20961;-78
2022/06/15 00:50:24;;;;;;;9.40;4.40;;;12.80;99.90;;;;;;5045268;28;20073;-78
2022/06/15 00:53:02;;;;;;;8.50;5.05;;;12.70;99.90;;;;;;5045248;28;20045;-77
2022/06/15 00:55:32;;;;;;;7.20;4.60;;;12.70;99.90;;;;;;5043589;28;20491;-78
2022/06/15 00:58:01;;;;;;;5.72;4.50;;;12.70;99.90;;;;;;5045459;28;20032;-77
2022/06/15 01:00:27;;;;;;;6.85;5.03;;;12.70;99.90;;;;;;5044375;28;20874;-78
2022/06/15 01:02:53;;;;;;;6.65;4.72;;;12.60;99.90;;;;;;5044951;28;20037;-78
2022/06/15 01:05:27;;;;;;;6.95;4.70;;;12.60;99.90;;;;;;5044461;28;20037;-78
2022/06/15 01:07:52;;;;;;;6.22;4.50;;;12.60;99.90;;;;;;5042578;28;20430;-78
2022/06/15 01:10:34;;;;;;;7.68;4.78;;;12.60;99.90;;;;;;5045071;28;20075;-78
2022/06/15 01:13:18;;;;;;;7.15;4.70;;;12.50;99.90;;;;;;5045039;28;20111;-78
2022/06/15 01:15:58;;;;;;;6.05;4.28;;;12.50;99.90;;;;;;5044694;28;20053;-79
2022/06/15 01:18:49;;;;;;;7.90;4.53;;;12.50;99.90;;;;;;5045040;28;20115;-79
2022/06/15 01:21:34;;;;;;;6.57;4.20;;;12.50;99.90;;;;;;5045434;28;20116;-79
2022/06/15 01:24:18;;;;;;;5.47;4.13;;;12.40;99.90;;;;;;5028451;28;20049;-79
2022/06/15 01:26:56;;;;;;;6.00;3.75;;;12.50;99.90;;;;;;5045215;28;20053;-78
2022/06/15 01:29:31;;;;;;;4.63;3.28;;;12.40;99.90;;;;;;5042885;28;20048;-79
2022/06/15 01:32:09;;;;;;;4.15;3.15;;;12.40;99.90;;;;;;5043318;28;20530;-79
2022/06/15 01:34:50;;;;;;;5.88;4.50;;;12.40;99.90;;;;;;5044004;28;20072;-78
2022/06/15 01:37:32;;;;;;;5.47;3.80;;;12.30;99.90;;;;;;5045798;28;20051;-79
2022/06/15 01:40:07;;;;;;;3.38;2.97;;;12.30;99.90;;;;;;5044142;28;20044;-78
2022/06/15 01:43:01;;;;;;;6.47;3.35;;;12.30;99.90;;;;;;5042978;28;20079;-78
2022/06/15 01:45:32;;;;;;;4.55;2.92;;;12.20;99.90;;;;;;5035427;28;20171;-78
2022/06/15 01:48:01;;;;;;;4.25;3.53;;;12.20;99.90;;;;;;5045667;28;20086;-79
2022/06/15 01:50:32;;;;;;;6.28;3.58;;;12.20;99.90;;;;;;5044493;28;20032;-78
2022/06/15 01:53:22;;;;;;;4.25;2.90;;;12.10;99.90;;;;;;5046065;28;20506;-78
2022/06/15 01:56:14;;;;;;;4.22;2.70;;;12.10;99.90;;;;;;5042940;28;20063;-79
2022/06/15 01:58:42;;;;;;;3.45;2.53;;;12.10;99.90;;;;;;5045865;28;20056;-78
2022/06/15 02:01:16;;;;;;;3.47;2.60;;;12.10;99.90;;;;;;5041464;28;20051;-78
2022/06/15 02:03:46;;;;;;;3.40;2.35;;;12.00;99.90;;;;;;5044065;28;20041;-78
2022/06/15 02:06:36;;;;;;;3.78;2.97;;;12.00;99.90;;;;;;5045386;28;20040;-78
2022/06/15 02:09:15;;;;;;;4.95;3.60;;;12.00;99.90;;;;;;5042566;28;20115;-79
2022/06/15 02:11:42;;;;;;;6.70;4.38;;;12.00;99.90;;;;;;5043752;28;20033;-78
2022/06/15 02:14:19;;;;;;;5.82;3.97;;;11.90;99.90;;;;;;5043573;28;20037;-78
2022/06/15 02:16:52;;;;;;;5.80;3.88;;;11.90;99.90;;;;;;5043529;28;20028;-78
2022/06/15 02:19:23;;;;;;;5.57;4.07;;;11.80;99.90;;;;;;5045162;28;20032;-79
2022/06/15 02:21:51;;;;;;;5.57;4.30;;;11.80;99.90;;;;;;5044491;28;20085;-78
2022/06/15 02:24:19;;;;;;;5.63;4.30;;;11.80;99.90;;;;;;5043477;28;20099;-78
2022/06/15 02:26:45;;;;;;;6.03;5.18;;;11.80;99.90;;;;;;5042474;28;20502;-78
2022/06/15 02:29:22;;;;;;;6.68;4.40;;;11.80;99.90;;;;;;5046171;28;20067;-78
2022/06/15 02:31:48;;;;;;;4.32;3.20;;;11.70;99.90;;;;;;5043887;28;20402;-79
2022/06/15 02:34:13;;;;;;;4.60;4.03;;;11.60;99.90;;;;;;5028554;28;20124;-78
2022/06/15 02:36:39;;;;;;;6.10;4.13;;;11.50;99.90;;;;;;5041723;28;20438;-78
2022/06/15 02:39:07;;;;;;;7.43;4.22;;;11.60;99.90;;;;;;5028807;28;20060;-78
2022/06/15 02:41:33;;;;;;;5.90;4.28;;;11.60;99.90;;;;;;5027749;28;20037;-79
2022/06/15 02:44:01;;;;;;;6.25;4.15;;;11.60;99.90;;;;;;5043545;28;21085;-78
2022/06/15 02:46:29;;;;;;;4.47;3.30;;;11.60;99.90;;;;;;5044211;28;20072;-77
2022/06/15 02:48:55;;;;;;;5.57;3.40;;;11.60;99.90;;;;;;5044809;28;20037;-79
2022/06/15 02:51:27;;;;;;;6.00;4.30;;;11.60;99.90;;;;;;5044329;28;20430;-78
2022/06/15 02:53:57;;;;;;;6.18;4.50;;;11.60;99.90;;;;;;5042849;28;20036;-79
2022/06/15 02:56:24;;;;;;;6.57;4.53;;;11.60;99.90;;;;;;5028287;28;20036;-78
2022/06/15 02:58:53;;;;;;;7.07;5.40;;;11.60;99.90;;;;;;5043524;28;20099;-78
2022/06/15 03:01:19;;;;;;;8.30;5.75;;;11.50;99.90;;;;;;5042699;28;20083;-79
2022/06/15 03:03:47;;;;;;;4.93;4.07;;;11.60;99.90;;;;;;5042216;28;20040;-79
2022/06/15 03:06:18;;;;;;;4.55;3.83;;;11.40;99.90;;;;;;5044190;28;20068;-78
2022/06/15 03:08:44;;;;;;;4.10;3.13;;;11.50;99.90;;;;;;5027070;28;20128;-78
2022/06/15 03:11:09;;;;;;;4.13;3.50;;;11.40;99.90;;;;;;5045348;28;20112;-78
2022/06/15 03:13:35;;;;;;;5.05;4.13;;;11.40;99.90;;;;;;5044254;28;20071;-79
2022/06/15 03:16:03;;;;;;;4.72;3.53;;;11.30;99.90;;;;;;5044473;28;20124;-79
2022/06/15 03:18:30;;;;;;;4.47;3.38;;;11.50;99.90;;;;;;5043281;28;20041;-79
2022/06/15 03:21:00;;;;;;;5.55;4.00;;;11.50;99.90;;;;;;5045103;28;20087;-79
2022/06/15 03:23:27;;;;;;;3.88;3.50;;;11.50;99.90;;;;;;5041363;28;20200;-79
2022/06/15 03:25:57;;;;;;;6.18;3.63;;;11.60;99.90;;;;;;5044012;28;20036;-79
2022/06/15 03:28:24;;;;;;;6.35;3.70;;;11.70;99.90;;;;;;5045877;28;20091;-79
2022/06/15 03:30:50;;;;;;;4.80;3.55;;;11.70;99.90;;;;;;5045672;28;20031;-79
2022/06/15 03:33:16;;;;;;;4.10;3.70;;;11.80;99.90;;;;;;5029106;28;20098;-79
2022/06/15 03:35:43;;;;;;;4.15;3.60;;;11.80;99.90;;;;;;5043487;28;20077;-79
2022/06/15 03:38:09;;;;;;;4.07;3.45;;;11.90;99.90;;;;;;5028509;28;20049;-78
2022/06/15 03:40:40;;;;;;;4.40;3.50;;;11.90;99.90;;;;;;5042503;28;20384;-78
2022/06/15 03:43:06;;;;;;;5.32;3.30;;;11.90;99.90;;;;;;5046125;28;20037;-79
2022/06/15 03:45:32;;;;;;;4.28;3.75;;;12.00;99.90;;;;;;5047594;28;20048;-79
2022/06/15 03:47:58;;;;;;;4.88;3.55;;;12.00;99.90;;;;;;5049107;28;20126;-79
2022/06/15 03:50:26;;;;;;;5.72;3.55;;;12.10;99.90;;;;;;5048578;28;20080;-79
2022/06/15 03:52:51;;;;;;;5.20;3.47;;;12.00;99.90;;;;;;5047723;28;20041;-79
2022/06/15 03:55:18;;;;;;;4.97;3.83;;;11.90;99.90;;;;;;5046737;28;20033;-79
2022/06/15 03:57:44;;;;;;;4.75;3.65;;;12.00;99.90;;;;;;5048641;28;20474;-79
2022/06/15 04:00:14;;;;;;;6.13;3.88;;;11.90;99.90;;;;;;5048065;28;20121;-78
2022/06/15 04:02:40;;;;;;;5.78;4.05;;;12.00;99.90;;;;;;5047560;28;20045;-79
2022/06/15 04:05:07;;;;;;;5.72;4.38;;;12.00;99.90;;;;;;5056665;28;20051;-79
2022/06/15 04:10:17;;;;;;;7.95;4.82;;;12.10;99.90;;;;;;5047230;28;20084;-79
2022/06/15 04:12:44;;;;;;;7.68;4.72;;;12.10;99.90;;;;;;5047426;28;20033;-78
2022/06/15 04:15:10;;;;;;;7.45;5.30;;;12.20;99.90;;;;;;5044590;28;20504;-77
2022/06/15 04:17:36;;;;;;;6.88;4.80;;;12.20;99.90;;;;;;5048311;28;20041;-78
2022/06/15 04:22:48;;;;;;;6.90;4.68;;;12.50;99.90;;;;;;5046573;28;20144;-77
2022/06/15 04:25:13;;;;;;;6.75;4.60;;;12.50;99.90;;;;;;5044848;28;20116;-78
2022/06/15 04:27:39;;;;;;;7.80;5.03;;;12.70;99.90;;;;;;5046846;28;20045;-77
2022/06/15 04:30:05;;;;;;;7.60;5.15;;;12.70;99.90;;;;;;5046577;28;20465;-77
2022/06/15 04:32:31;;;;;;;7.78;5.28;;;12.80;99.90;;;;;;5048854;28;20036;-78
2022/06/15 04:34:56;;;;;;;7.47;5.22;;;12.80;99.90;;;;;;5046239;28;20044;-77
2022/06/15 04:37:22;;;;;;;9.10;5.70;;;12.90;99.90;;;;;;5027539;28;20048;-78
2022/06/15 04:39:48;;;;;;;10.10;5.20;;;13.00;99.90;;;;;;5047506;28;20047;-78
2022/06/15 04:42:13;;;;;;;8.95;5.20;;;13.00;99.90;;;;;;5045391;28;20178;-78
2022/06/15 04:44:39;;;;;;;8.70;6.22;;;13.10;99.90;;;;;;5046683;28;20067;-78
2022/06/15 04:47:04;;;;;;;12.93;5.47;;;13.30;99.90;;;;;;5045792;28;20045;-78
2022/06/15 04:49:30;;;;;;;8.10;5.38;;;13.30;99.90;;;;;;5045624;28;20037;-78
2022/06/15 04:51:55;;;;;;;10.00;5.75;;;13.30;99.90;;;;;;5064214;28;20033;-78
2022/06/15 04:54:22;;;;;;;12.73;6.13;;;13.30;99.90;;;;;;5028887;28;20037;-78
2022/06/15 04:56:47;;;;;;;10.52;5.13;;;13.30;99.90;;;;;;5029056;28;20048;-78
2022/06/15 04:59:13;;;;;;;8.82;5.30;;;13.30;99.90;;;;;;5047232;28;20609;-77
2022/06/15 05:01:39;;;;;;;7.90;5.00;;;13.30;99.90;;;;;;5044892;28;20037;-78
2022/06/15 05:04:05;;;;;;;7.78;5.10;;;13.30;99.90;;;;;;5047094;28;20032;-78
2022/06/15 05:06:35;;;;;;;10.20;5.35;;;13.30;99.90;;;;;;5047114;28;20055;-78
2022/06/15 05:09:05;;;;;;;8.65;5.13;;;13.40;99.90;;;;;;5047295;28;20041;-78
2022/06/15 05:11:31;;;;;;;9.60;5.65;;;13.50;99.90;;;;;;5028387;28;20037;-78
2022/06/15 05:13:57;;;;;;;10.10;5.03;;;13.60;99.90;;;;;;5045333;28;20029;-79
2022/06/15 05:16:23;;;;;;;7.57;4.60;;;13.70;99.90;;;;;;5045230;28;20035;-79
2022/06/15 05:18:49;;;;;;;11.80;4.95;;;13.80;99.90;;;;;;5028985;28;20102;-78
2022/06/15 05:21:15;;;;;;;8.38;4.63;;;13.80;99.90;;;;;;5028255;28;20805;-79
2022/06/15 05:23:40;;;;;;;8.80;4.45;;;14.00;99.90;;;;;;5044338;28;20040;-77
2022/06/15 05:26:06;;;;;;;11.77;4.00;;;14.00;99.90;;;;;;5046628;28;20116;-78
2022/06/15 05:28:32;;;;;;;11.23;4.07;;;14.10;99.90;;;;;;5030199;28;20707;-79
2022/06/15 05:31:10;;;;;;;8.63;4.30;;;14.20;99.90;;;;;;5048481;28;20033;-79
2022/06/15 05:33:36;;;;;;;8.82;4.25;;;14.30;99.90;;;;;;5030034;28;20045;-78
2022/06/15 05:36:08;;;;;;;6.57;4.47;;;14.30;99.90;;;;;;5044181;28;20112;-79
2022/06/15 05:38:35;;;;;;;9.35;4.55;;;14.50;99.90;;;;;;5046066;28;20041;-79
2022/06/15 05:41:01;;;;;;;12.40;5.07;;;14.60;99.90;;;;;;5045184;28;20044;-77
2022/06/15 05:43:27;;;;;;;8.77;4.90;;;14.70;99.90;;;;;;5043880;28;20090;-79
2022/06/15 05:45:53;;;;;;;9.57;4.45;;;14.80;99.90;;;;;;5043996;28;20063;-78
2022/06/15 05:48:19;;;;;;;6.15;3.97;;;14.90;99.90;;;;;;5046970;28;20048;-79
2022/06/15 05:50:44;;;;;;;8.90;4.45;;;15.00;99.90;;;;;;5028111;28;20034;-79
2022/06/15 05:53:10;;;;;;;10.75;4.75;;;15.00;99.90;;;;;;5045912;28;20051;-78
2022/06/15 05:55:35;;;;;;;7.78;4.53;;;15.10;99.90;;;;;;5044765;28;20124;-78
2022/06/15 05:58:03;;;;;;;8.65;4.53;;;15.30;99.90;;;;;;5045687;28;20076;-78
2022/06/15 06:00:29;;;;;;;12.27;4.38;;;15.50;99.90;;;;;;5046802;28;20458;-79
2022/06/15 06:02:54;;;;;;;7.80;4.78;;;15.80;99.90;;;;;;5050636;28;20025;-79
2022/06/15 06:05:22;;;;;;;8.82;4.47;;;16.00;99.90;;;;;;5050111;28;20098;-78
2022/06/15 06:07:47;;;;;;;8.60;4.43;;;16.30;99.90;;;;;;5048757;28;20037;-79
2022/06/15 06:10:13;;;;;;;8.38;4.00;;;16.40;99.90;;;;;;5044618;28;20049;-78
2022/06/15 06:12:38;;;;;;;8.35;4.28;;;16.50;99.90;;;;;;5045621;28;20495;-79
2022/06/15 06:15:05;;;;;;;6.88;3.90;;;16.80;99.90;;;;;;5043861;28;20044;-77
2022/06/15 06:17:30;;;;;;;7.05;3.92;;;16.90;99.90;;;;;;5043434;28;20078;-78
2022/06/15 06:19:56;;;;;;;8.77;4.15;;;17.00;99.90;;;;;;5043449;28;20081;-79
2022/06/15 06:22:21;;;;;;;6.70;3.65;;;17.20;99.90;;;;;;5044120;28;20064;-78
2022/06/15 06:24:47;;;;;;;10.02;3.90;;;17.30;99.90;;;;;;5048397;28;20040;-78
2022/06/15 06:27:15;;;;;;;9.77;3.63;;;17.20;99.90;;;;;;5045148;28;20033;-78
2022/06/15 06:29:41;;;;;;;9.98;3.28;;;17.30;99.90;;;;;;5043923;28;20037;-78
2022/06/15 06:32:09;;;;;;;7.68;3.72;;;17.40;99.90;;;;;;5064634;28;20165;-79
2022/06/15 06:34:35;;;;;;;9.90;3.10;;;17.50;99.90;;;;;;5045650;28;21669;-78
2022/06/15 06:37:02;;;;;;;6.65;3.17;;;17.50;99.90;;;;;;5045599;28;20029;-79
2022/06/15 06:39:30;;;;;;;8.43;2.85;;;17.60;99.90;;;;;;5045418;28;20059;-79
2022/06/15 06:41:57;;;;;;;8.00;2.90;;;17.70;99.90;;;;;;5043652;28;20041;-79
2022/06/15 06:44:23;;;;;;;7.68;3.03;;;17.80;99.90;;;;;;5048656;28;20069;-79
2022/06/15 06:46:51;;;;;;;7.10;2.92;;;17.90;99.90;;;;;;5045540;28;20040;-79
2022/06/15 06:49:17;;;;;;;7.45;2.72;;;18.00;99.90;;;;;;5045848;28;20045;-79
2022/06/15 06:51:44;;;;;;;8.95;2.65;;;18.10;99.90;;;;;;5047544;28;20065;-78
2022/06/15 06:54:12;;;;;;;5.72;2.90;;;18.20;99.90;;;;;;5044332;28;20573;-80
2022/06/15 06:56:38;;;;;;;8.23;3.00;;;18.30;99.90;;;;;;5043768;28;20068;-79
2022/06/15 06:59:06;;;;;;;6.45;2.28;;;18.40;99.90;;;;;;5045139;28;20041;-80
2022/06/15 07:01:32;;;;;;;7.05;2.70;;;18.40;99.90;;;;;;5045269;28;20048;-79
2022/06/15 07:03:58;;;;;;;5.78;2.20;;;18.40;99.90;;;;;;5048838;28;20041;-80
2022/06/15 07:06:24;;;;;;;5.65;2.10;;;18.30;99.90;;;;;;5048018;28;20129;-79
2022/06/15 07:08:50;;;;;;;7.25;1.90;;;18.30;99.90;;;;;;5050080;28;20498;-79
2022/06/15 07:11:17;;;;;;;6.03;2.10;;;18.30;99.90;;;;;;5034034;28;20069;-79
2022/06/15 07:13:46;;;;;;;6.95;2.33;;;18.30;99.90;;;;;;5051398;28;20033;-79
2022/06/15 07:16:16;;;;;;;6.25;2.10;;;18.30;99.90;;;;;;5051025;28;20064;-79
2022/06/15 07:18:43;;;;;;;7.35;2.53;;;18.30;99.90;;;;;;5054691;28;20073;-79
2022/06/15 07:21:12;;;;;;;8.00;2.67;;;18.40;99.90;;;;;;5055038;28;20052;-80
2022/06/15 07:23:44;;;;;;;4.68;2.35;;;18.40;99.90;;;;;;5054218;28;20063;-79
2022/06/15 07:26:14;;;;;;;6.25;1.92;;;18.50;99.90;;;;;;5039077;28;20052;-80
2022/06/15 07:28:40;;;;;;;6.28;2.33;;;18.60;99.90;;;;;;5038630;28;20040;-80
2022/06/15 07:31:08;;;;;;;7.40;2.58;;;18.70;99.90;;;;;;5054678;28;20555;-79
2022/06/15 07:33:35;;;;;;;6.35;2.83;;;18.70;99.90;;;;;;5055002;28;20115;-80
2022/06/15 07:36:00;;;;;;;5.13;2.55;;;18.70;99.90;;;;;;5033469;28;20069;-79
2022/06/15 07:38:26;;;;;;;6.18;2.20;;;18.70;99.90;;;;;;5018061;28;20045;-80
2022/06/15 07:40:52;;;;;;;7.22;1.80;;;18.70;99.90;;;;;;5039457;28;20052;-79
2022/06/15 07:43:18;;;;;;;5.47;2.40;;;18.60;99.90;;;;;;5055287;28;20041;-80
2022/06/15 07:45:44;;;;;;;6.75;2.00;;;18.70;99.90;;;;;;5046524;28;20462;-79
2022/06/15 07:50:54;;;;;;;9.60;2.60;;;18.70;99.90;;;;;;5034803;28;20398;-79
2022/06/15 07:53:20;;;;;;;7.28;2.10;;;18.80;99.90;;;;;;5034009;28;20037;-78
2022/06/15 07:55:47;;;;;;;4.55;1.98;;;18.90;99.90;;;;;;5051212;28;20111;-79
2022/06/15 07:58:14;;;;;;;6.90;2.35;;;19.10;99.90;;;;;;5052062;28;20036;-78
2022/06/15 08:00:43;;;;;;;6.72;2.40;;;19.20;99.90;;;;;;5046810;28;20107;-78
2022/06/15 08:03:10;;;;;;;5.72;2.40;;;19.50;99.90;;;;;;5049443;28;20088;-78
2022/06/15 08:05:40;;;;;;;6.50;2.42;;;19.70;99.90;;;;;;5033700;28;20400;-78
2022/06/15 08:08:19;;;;;;;4.82;2.08;;;20.10;99.90;;;;;;5053114;28;20127;-78
2022/06/15 08:10:46;;;;;;;4.35;2.17;;;20.40;99.90;;;;;;5052964;28;20399;-79
2022/06/15 08:13:12;;;;;;;6.60;2.13;;;20.40;99.90;;;;;;5052846;28;20091;-79
2022/06/15 08:15:41;;;;;;;6.13;2.42;;;20.40;99.90;;;;;;5052387;28;20047;-79
2022/06/15 08:18:11;;;;;;;6.15;2.30;;;20.30;99.90;;;;;;5050322;28;20041;-79
2022/06/15 08:20:43;;;;;;;7.38;2.30;;;20.20;99.90;;;;;;5037141;28;20060;-79
2022/06/15 08:23:12;;;;;;;6.05;2.80;;;20.20;99.90;;;;;;5037417;28;20069;-79
2022/06/15 08:25:41;;;;;;;7.90;2.53;;;20.40;99.90;;;;;;5015599;28;20045;-78
2022/06/15 08:28:08;;;;;;;8.68;2.60;;;20.60;99.90;;;;;;5045380;28;20120;-78
2022/06/15 08:30:37;;;;;;;5.65;2.30;;;20.70;99.90;;;;;;5052040;28;20099;-79
2022/06/15 08:33:04;;;;;;;5.15;2.55;;;21.00;99.90;;;;;;5052154;28;20128;-78
2022/06/15 08:35:30;;;;;;;8.05;2.35;;;21.20;99.90;;;;;;5051484;28;20112;-78
2022/06/15 08:37:56;;;;;;;6.50;2.10;;;21.00;99.90;;;;;;5051945;28;20136;-78
2022/06/15 08:40:22;;;;;;;5.75;2.40;;;21.10;99.90;;;;;;5050669;28;20037;-78
2022/06/15 08:42:56;;;;;;;5.30;2.10;;;21.20;99.90;;;;;;5052574;28;20045;-79
2022/06/15 08:45:35;;;;;;;3.40;1.98;;;21.30;99.90;;;;;;5050918;28;20083;-78
2022/06/15 08:48:33;;;;;;;7.00;2.20;;;21.40;99.90;;;;;;5036771;28;20567;-77
2022/06/15 08:51:11;;;;;;;5.20;1.92;;;21.50;99.90;;;;;;5048915;28;20041;-78
2022/06/15 08:53:52;;;;;;;6.35;2.25;;;21.50;99.90;;;;;;5049288;28;20446;-78
2022/06/15 08:56:43;;;;;;;7.10;2.22;;;21.60;99.90;;;;;;5048777;28;20037;-78
2022/06/15 08:59:22;;;;;;;6.93;2.10;;;21.60;99.90;;;;;;5027160;28;20049;-78
2022/06/15 09:02:13;;;;;;;5.07;2.10;;;21.50;99.90;;;;;;5043822;28;20041;-79
2022/06/15 09:04:54;;;;;;;5.85;1.80;;;21.60;99.90;;;;;;5038276;28;20106;-78
2022/06/15 09:07:26;;;;;;;4.80;2.20;;;21.50;99.90;;;;;;5040295;28;20576;-78
2022/06/15 09:10:12;;;;;;;4.10;2.05;;;21.50;99.90;;;;;;5048314;28;20446;-78
2022/06/15 09:12:59;;;;;;;4.00;2.10;;;21.50;99.90;;;;;;5049370;28;20045;-78
2022/06/15 09:15:42;;;;;;;8.20;2.53;;;21.60;99.90;;;;;;5044323;28;20490;-77
2022/06/15 09:18:20;;;;;;;5.60;2.35;;;21.70;99.90;;;;;;5042440;28;20511;-77
2022/06/15 09:20:56;;;;;;;3.83;1.80;;;21.70;99.90;;;;;;5043727;28;20465;-78
2022/06/15 09:23:28;;;;;;;5.35;2.05;;;21.90;99.90;;;;;;5040956;28;20049;-78
2022/06/15 09:26:01;;;;;;;5.55;2.08;;;22.00;99.90;;;;;;5042257;28;20052;-78
2022/06/15 09:28:34;;;;;;;5.53;2.50;;;22.10;99.90;;;;;;5045394;28;20056;-79
2022/06/15 09:31:05;;;;;;;5.28;2.90;;;22.30;99.90;;;;;;5044407;28;20049;-77
2022/06/15 09:33:40;;;;;;;6.57;2.28;;;22.60;99.90;;;;;;5042943;28;20041;-78
2022/06/15 09:36:14;;;;;;;4.25;2.65;;;22.60;99.90;;;;;;5044492;28;20095;-78
2022/06/15 09:38:41;;;;;;;;;;;22.60;99.90;;;;;;5045017;28;20048;-78
2022/06/15 09:41:22;;;;;;;5.70;2.50;;;22.40;99.90;;;;;;5038240;28;20384;-77
2022/06/15 09:44:04;;;;;;;4.38;2.65;;;22.30;99.90;;;;;;5062084;28;20045;-80
2022/06/15 09:46:35;;;;;;;5.15;2.30;;;22.50;99.90;;;;;;5044246;28;20463;-79
2022/06/15 09:49:29;;;;;;;6.10;2.70;;;22.40;99.90;;;;;;5061192;28;20063;-78
2022/06/15 09:52:10;;;;;;;5.00;2.58;;;22.20;99.90;;;;;;5044549;28;20080;-78
2022/06/15 09:54:48;;;;;;;6.10;2.53;;;22.00;99.90;;;;;;5042382;28;20390;-77
2022/06/15 09:57:13;;;;;;;5.22;2.60;;;21.70;99.90;;;;;;5041349;28;20053;-78
2022/06/15 09:59:39;;;;;;;5.90;2.35;;;21.60;99.90;;;;;;5036293;28;20049;-78
2022/06/15 10:02:23;;;;;;;4.75;1.95;;;21.30;99.90;;;;;;5028975;28;20098;-78
2022/06/15 10:04:49;;;;;;;4.80;2.20;;;21.10;99.90;;;;;;5045546;28;20044;-77
2022/06/15 10:07:38;;;;;;;4.53;2.00;;;21.00;99.90;;;;;;5057678;28;20291;-76
2022/06/15 10:10:18;;;;;;;10.48;2.40;;;20.90;99.90;;;;;;5049714;28;20040;-77
2022/06/15 10:12:56;;;;;;;4.80;2.10;;;21.10;99.90;;;;;;5037800;28;20051;-78
2022/06/15 10:15:48;;;;;;;3.95;1.80;;;21.30;99.90;;;;;;5045738;28;20037;-77
2022/06/15 10:18:26;;;;;;;4.15;2.20;;;21.50;99.90;;;;;;5050142;28;20041;-78
2022/06/15 10:20:58;;;;;;;4.68;2.10;;;21.70;99.90;;;;;;5050118;28;20064;-78
2022/06/15 10:23:35;;;;;;;8.88;1.92;;;21.80;99.90;;;;;;5049579;28;20057;-78
2022/06/15 10:26:01;;;;;;;7.03;2.35;;;22.10;99.90;;;;;;5049803;28;20132;-78
2022/06/15 10:28:33;;;;;;;5.50;2.30;;;22.30;99.90;;;;;;5049894;28;20120;-78
2022/06/15 10:31:12;;;;;;;4.32;1.90;;;22.50;99.90;;;;;;5050161;28;20033;-79
2022/06/15 10:33:40;;;;;;;5.53;2.40;;;22.60;99.90;;;;;;5033787;28;20083;-78
2022/06/15 10:36:27;;;;;;;5.65;2.33;;;22.70;99.90;;;;;;5050262;28;20056;-80
2022/06/15 10:38:59;;;;;;;5.82;2.10;;;22.90;99.90;;;;;;5033699;28;20052;-78
2022/06/15 10:41:47;;;;;;;5.53;1.98;;;23.10;99.90;;;;;;5047133;28;20037;-80
2022/06/15 10:44:30;;;;;;;6.03;2.20;;;23.30;99.90;;;;;;5047081;28;20429;-79
2022/06/15 10:47:00;;;;;;;3.95;2.00;;;23.30;99.90;;;;;;5045570;28;20120;-80
2022/06/15 10:49:28;;;;;;;6.15;2.05;;;23.30;99.90;;;;;;5049421;28;20445;-79
2022/06/15 10:51:54;;;;;;;5.97;1.90;;;23.20;99.90;;;;;;5046153;28;20060;-78
2022/06/15 10:54:22;;;;;;;4.40;1.80;;;23.10;99.90;;;;;;5053048;28;20134;-78
2022/06/15 11:02:37;;;;;;;4.72;1.95;;;23.40;99.90;;;;;;5048379;28;20048;-80
2022/06/15 11:05:06;;;;;;;6.20;1.98;;;23.60;99.90;;;;;;5045951;28;20151;-80
2022/06/15 11:07:40;;;;;;;7.15;1.83;;;23.90;99.90;;;;;;5050933;28;20089;-80
2022/06/15 11:10:19;;;;;;;5.65;2.28;;;23.80;99.90;;;;;;5051559;28;20126;-79
2022/06/15 11:12:48;;;;;;;5.95;2.00;;;23.40;99.90;;;;;;5048287;28;20029;-77
2022/06/15 11:15:13;;;;;;;8.30;2.05;;;23.30;99.90;;;;;;5030418;28;20111;-78
2022/06/15 11:18:05;;;;;;;4.93;1.73;;;23.40;99.90;;;;;;5044922;28;20131;-78
2022/06/15 11:21:18;;;;;;;4.25;2.10;;;23.60;99.90;;;;;;5046452;28;20045;-78
2022/06/15 11:23:57;;;;;;;4.97;1.90;;;23.90;99.90;;;;;;4974489;28;20042;-78
2022/06/15 11:26:52;;;;;;;3.88;1.70;;;24.00;99.60;;;;;;4989142;28;20121;-78
2022/06/15 11:29:30;;;;;;;5.00;2.00;;;24.10;99.90;;;;;;5034377;28;20060;-78
2022/06/15 11:32:00;;;;;;;4.90;1.83;;;24.40;99.40;;;;;;5029295;28;20041;-79
2022/06/15 11:34:32;;;;;;;5.03;1.77;;;24.30;99.30;;;;;;5032178;28;20102;-78
2022/06/15 11:37:06;;;;;;;4.03;1.80;;;24.10;99.10;;;;;;5049011;28;20096;-78
2022/06/15 11:39:56;;;;;;;4.28;1.73;;;23.90;99.60;;;;;;5046307;28;20043;-79
2022/06/15 11:42:23;;;;;;;3.58;1.63;;;23.60;98.00;;;;;;5049697;28;20029;-78
2022/06/15 11:44:48;;;;;;;5.72;1.98;;;23.50;98.80;;;;;;5046291;28;20041;-78
2022/06/15 11:47:29;;;;;;;6.15;1.67;;;23.10;98.40;;;;;;5046423;28;20036;-81
2022/06/15 11:50:07;;;;;;;5.50;1.80;;;22.90;98.20;;;;;;5046006;28;20048;-78
2022/06/15 11:52:44;;;;;;;6.47;1.65;;;23.10;98.30;;;;;;5046514;28;20132;-78
2022/06/15 11:55:18;;;;;;;4.97;1.85;;;23.50;98.80;;;;;;5046202;28;20479;-78
2022/06/15 11:58:02;;;;;;;4.85;1.98;;;23.80;98.00;;;;;;5030210;28;20037;-77
2022/06/15 12:00:46;;;;;;;2.75;1.90;;;24.20;98.00;;;;;;5031013;28;20208;-77
2022/06/15 12:03:30;;;;;;;;;;;24.30;97.80;;;;;;5046579;28;20119;-77
2022/06/15 12:06:08;;;;;;;5.43;2.30;;;24.20;96.20;;;;;;5045867;28;19924;-78
2022/06/15 12:08:42;;;;;;;7.30;2.38;;;23.90;97.50;;;;;;5046631;28;20044;-77
2022/06/15 12:14:26;;;;;;;4.93;2.22;;;23.50;97.90;;;;;;5046779;28;20775;-79
2022/06/15 12:17:11;;;;;;;4.20;2.30;;;23.80;98.60;;;;;;5044202;28;20033;-78
2022/06/15 12:19:48;;;;;;;5.45;2.38;;;23.80;98.40;;;;;;5044904;28;20123;-76
2022/06/15 12:22:25;;;;;;;4.68;2.35;;;23.20;97.30;;;;;;5043687;28;20561;-77
2022/06/15 12:25:23;;;;;;;5.93;2.40;;;23.10;98.50;;;;;;5043111;28;20044;-78
2022/06/15 12:28:08;;;;;;;6.25;2.30;;;23.10;99.00;;;;;;5035023;28;20044;-79
2022/06/15 12:30:47;;;;;;;7.32;2.10;;;23.10;99.10;;;;;;5043996;28;20037;-78
2022/06/15 12:33:28;;;;;;;5.55;2.50;;;23.30;99.50;;;;;;5048766;28;20128;-78
2022/06/15 12:36:18;;;;;;;4.50;2.30;;;23.80;99.40;;;;;;5066462;28;20039;-78
2022/06/15 12:38:57;;;;;;;4.72;2.22;;;24.40;99.10;;;;;;5049943;28;20071;-79
2022/06/15 12:44:19;;;;;;;6.55;3.03;;;25.50;97.50;;;;;;5050154;28;20398;-79
2022/06/15 12:46:47;;;;;;;5.32;3.60;;;25.30;96.80;;;;;;5045110;28;20499;-79
2022/06/15 12:49:24;;;;;;;7.78;2.90;;;25.60;96.90;;;;;;5045398;28;20055;-78
2022/06/15 12:52:18;;;;;;;4.30;2.95;;;25.60;95.80;;;;;;5031054;28;20060;-78
2022/06/15 12:55:14;;;;;;;7.57;3.35;;;25.50;95.30;;;;;;5049710;28;20064;-80
2022/06/15 12:58:05;;;;;;;7.45;3.90;;;25.90;94.80;;;;;;5044649;28;20080;-79
2022/06/15 13:00:58;;;;;;;5.95;3.67;;;25.90;95.40;;;;;;5013062;28;20467;-79
2022/06/15 13:03:51;;;;;;;6.97;3.22;;;25.60;95.20;;;;;;5034769;28;20449;-77
2022/06/15 13:06:35;;;;;;;5.05;2.80;;;25.80;93.90;;;;;;5046283;28;20087;-77
2022/06/15 13:09:18;;;;;;;5.22;3.47;;;25.70;93.60;;;;;;5046232;28;20048;-79
2022/06/15 13:11:58;;;;;;;6.57;2.95;;;26.20;93.90;;;;;;5048975;28;20102;-78
2022/06/15 13:14:49;;;;;;;5.15;2.72;;;26.50;93.90;;;;;;5048654;28;20057;-78
2022/06/15 13:17:18;;;;;;;4.65;3.28;;;26.60;93.50;;;;;;5040991;28;20052;-79
2022/06/15 13:20:00;;;;;;;7.70;3.15;;;26.30;93.40;;;;;;5050119;28;20045;-78
2022/06/15 13:22:32;;;;;;;6.60;2.90;;;26.20;93.30;;;;;;5049302;28;20091;-78
2022/06/15 13:25:06;;;;;;;5.38;3.33;;;26.00;93.40;;;;;;5049547;28;20048;-78
2022/06/15 13:27:43;;;;;;;7.03;2.90;;;26.10;92.80;;;;;;5050402;28;20044;-80
2022/06/15 13:30:28;;;;;;;7.40;2.92;;;26.10;92.60;;;;;;5050194;28;20045;-78
2022/06/15 13:33:09;;;;;;;5.05;2.90;;;26.20;92.60;;;;;;5049785;28;20041;-79